createdAt,value
2023-04-15T00:01:30.018Z,100627.22
2023-04-15T00:06:33.976Z,100619.72
2023-04-15T00:11:36.574Z,100610.03
2023-04-15T00:16:39.199Z,100608.53
2023-04-15T00:21:43.069Z,100605.59
2023-04-15T00:26:45.559Z,100608.41
2023-04-15T00:31:48.064Z,100620.44
2023-04-15T00:36:52.512Z,100616.84
2023-04-15T00:41:55.837Z,100613.66
2023-04-15T00:46:59.463Z,100605.69
2023-04-15T00:52:03.653Z,100601.66
2023-04-15T00:57:06.718Z,100591.97
2023-04-15T01:02:09.395Z,100582.69
2023-04-15T01:07:13.305Z,100584.84
2023-04-15T01:12:18.039Z,100571.03
2023-04-15T01:17:20.932Z,100554.78
2023-04-15T01:22:25.509Z,100575.06
2023-04-15T01:27:29.403Z,100574.00
2023-04-15T01:32:31.997Z,100570.63
2023-04-15T01:37:34.939Z,100568.19
2023-04-15T01:42:38.841Z,100577.25
2023-04-15T01:47:41.506Z,100576.53
2023-04-15T01:52:44.341Z,100565.69
2023-04-15T01:57:48.236Z,100567.03
2023-04-15T02:02:51.255Z,100568.31
2023-04-15T02:07:53.877Z,100571.81
2023-04-15T02:12:57.738Z,100570.94
2023-04-15T02:18:01.032Z,100562.34
2023-04-15T02:23:07.265Z,100564.78
2023-04-15T02:28:11.299Z,100561.34
2023-04-15T02:33:13.815Z,100557.84
2023-04-15T02:38:17.841Z,100558.72
2023-04-15T02:43:21.827Z,100562.97
2023-04-15T02:48:24.529Z,100565.25
2023-04-15T02:53:27.040Z,100565.41
2023-04-15T02:58:31.152Z,100569.91
2023-04-15T03:03:33.759Z,100569.66
2023-04-15T03:08:36.375Z,100575.81
2023-04-15T03:13:41.788Z,100570.19
2023-04-15T03:18:44.349Z,100567.56
2023-04-15T03:23:46.943Z,100565.69
2023-04-15T03:28:50.748Z,100558.38
2023-04-15T03:33:53.258Z,100575.69
2023-04-15T03:38:56.095Z,100576.41
2023-04-15T03:43:59.917Z,100580.22
2023-04-15T03:49:03.286Z,100577.59
2023-04-15T03:54:06.282Z,100571.66
2023-04-15T03:59:10.154Z,100582.47
2023-04-15T04:04:12.733Z,100582.66
2023-04-15T04:09:15.480Z,100577.41
2023-04-15T04:14:19.359Z,100574.88
2023-04-15T04:19:21.916Z,100595.69
2023-04-15T04:24:24.504Z,100599.84
2023-04-15T04:29:28.397Z,100594.41
2023-04-15T04:34:31.078Z,100612.56
2023-04-15T04:39:33.731Z,100622.41
2023-04-15T04:44:37.973Z,100626.50
2023-04-15T04:49:41.112Z,100624.66
2023-04-15T04:54:43.658Z,100616.00
2023-04-15T04:59:47.494Z,100619.50
2023-04-15T05:04:50.278Z,100621.59
2023-04-15T05:09:52.846Z,100623.34
2023-04-15T05:14:56.689Z,100626.66
2023-04-15T05:19:59.176Z,100633.94
2023-04-15T05:25:01.697Z,100626.56
2023-04-15T05:30:07.157Z,100619.59
2023-04-15T05:35:09.962Z,100629.19
2023-04-15T05:40:12.962Z,100636.53
2023-04-15T05:45:16.841Z,100636.88
2023-04-15T05:50:19.557Z,100645.28
2023-04-15T05:55:22.235Z,100647.53
2023-04-15T06:00:26.180Z,100651.63
2023-04-15T06:05:29.232Z,100662.84
2023-04-15T06:10:36.252Z,100658.22
2023-04-15T06:15:40.139Z,100663.34
2023-04-15T06:20:42.816Z,100676.38
2023-04-15T06:25:45.734Z,100671.09
2023-04-15T06:30:49.579Z,100675.53
2023-04-15T06:35:52.089Z,100681.72
2023-04-15T06:40:54.652Z,100681.31
2023-04-15T06:45:58.522Z,100682.09
2023-04-15T06:51:01.168Z,100679.97
2023-04-15T06:56:03.653Z,100682.00
2023-04-15T07:01:07.610Z,100686.53
2023-04-15T07:06:10.208Z,100688.84
2023-04-15T07:11:13.074Z,100693.44
2023-04-15T07:16:16.904Z,100699.34
2023-04-15T07:21:19.438Z,100699.81
2023-04-15T07:26:21.956Z,100685.41
2023-04-15T07:31:26.178Z,100695.06
2023-04-15T07:36:29.301Z,100682.72
2023-04-15T07:41:31.945Z,100699.88
2023-04-15T07:46:37.178Z,100703.19
2023-04-15T07:51:39.960Z,100700.66
2023-04-15T07:56:42.556Z,100692.13
2023-04-15T08:01:46.597Z,100706.31
2023-04-15T08:06:50.252Z,100698.28
2023-04-15T08:11:52.751Z,100710.97
2023-04-15T08:16:56.574Z,100719.41
2023-04-15T08:21:59.125Z,100721.41
2023-04-15T08:27:04.399Z,100721.63
2023-04-15T08:32:09.639Z,100727.31
2023-04-15T08:37:12.736Z,100725.75
2023-04-15T08:42:18.616Z,100738.19
2023-04-15T08:47:27.567Z,100736.75
2023-04-15T08:52:32.220Z,100734.97
2023-04-15T08:57:34.934Z,100744.84
2023-04-15T09:02:39.954Z,100740.09
2023-04-15T09:07:42.827Z,100743.28
2023-04-15T09:12:45.428Z,100746.13
2023-04-15T09:17:49.437Z,100746.44
2023-04-15T09:22:53.107Z,100746.69
2023-04-15T09:27:57.445Z,100759.41
2023-04-15T09:33:03.159Z,100768.03
2023-04-15T09:38:07.821Z,100766.88
2023-04-15T09:43:12.870Z,100752.19
2023-04-15T09:48:20.725Z,100751.41
2023-04-15T09:53:24.695Z,100761.97
2023-04-15T09:58:28.789Z,100777.44
2023-04-15T10:03:35.497Z,100774.56
2023-04-15T10:08:38.391Z,100781.16
2023-04-15T10:13:41.333Z,100785.31
2023-04-15T10:18:46.524Z,100787.88
2023-04-15T10:23:49.481Z,100790.72
2023-04-15T10:28:53.508Z,100786.25
2023-04-15T10:33:58.316Z,100783.81
2023-04-15T10:39:01.349Z,100798.38
2023-04-15T10:44:05.668Z,100791.22
2023-04-15T10:49:11.396Z,100791.47
2023-04-15T10:54:15.961Z,100793.94
2023-04-15T10:59:19.209Z,100795.63
2023-04-15T11:04:54.705Z,100797.72
2023-04-15T11:09:57.489Z,100798.97
2023-04-15T11:15:00.034Z,100808.00
2023-04-15T11:20:04.516Z,100815.09
2023-04-15T11:25:07.556Z,100817.34
2023-04-15T11:30:20.024Z,100825.94
2023-04-15T11:35:23.833Z,100816.28
2023-04-15T11:40:28.122Z,100827.09
2023-04-15T11:45:30.867Z,100833.94
2023-04-15T11:50:35.358Z,100829.56
2023-04-15T11:55:46.842Z,100834.31
2023-04-15T12:00:52.334Z,100831.47
2023-04-15T12:06:18.317Z,100839.00
2023-04-15T12:11:21.420Z,100846.06
2023-04-15T12:16:24.875Z,100847.88
2023-04-15T12:21:34.443Z,100856.56
2023-04-15T12:26:39.232Z,100855.34
2023-04-15T12:31:52.443Z,100853.69
2023-04-15T12:36:56.763Z,100864.81
2023-04-15T12:42:00.091Z,100869.94
2023-04-15T12:47:03.133Z,100875.13
2023-04-15T12:52:07.392Z,100883.59
2023-04-15T12:57:10.019Z,100898.94
2023-04-15T13:02:12.649Z,100890.81
2023-04-15T13:07:16.547Z,100904.88
2023-04-15T13:12:19.113Z,100907.31
2023-04-15T13:17:21.966Z,100905.31
2023-04-15T13:22:25.869Z,100918.81
2023-04-15T13:27:28.609Z,100919.56
2023-04-15T13:32:31.238Z,100929.03
2023-04-15T13:37:35.291Z,100933.72
2023-04-15T13:42:37.773Z,100937.53
2023-04-15T13:47:41.908Z,100944.13
2023-04-15T13:52:45.867Z,100952.56
2023-04-15T13:57:48.756Z,100965.41
2023-04-15T14:02:51.878Z,100966.91
2023-04-15T14:07:55.899Z,100966.50
2023-04-15T14:12:58.533Z,100965.81
2023-04-15T14:18:01.979Z,100969.84
2023-04-15T14:23:05.851Z,100965.34
2023-04-15T14:28:08.356Z,100971.59
2023-04-15T14:33:10.889Z,100979.34
2023-04-15T14:38:14.716Z,100994.69
2023-04-15T14:43:17.254Z,100999.75
2023-04-15T14:48:19.775Z,101005.75
2023-04-15T14:53:23.602Z,101008.31
2023-04-15T14:58:26.135Z,101009.53
2023-04-15T15:03:29.151Z,101027.19
2023-04-15T15:08:33.069Z,101022.56
2023-04-15T15:13:35.927Z,101037.06
2023-04-15T15:18:38.460Z,101045.41
2023-04-15T15:23:42.329Z,101045.50
2023-04-15T15:28:45.449Z,101060.78
2023-04-15T15:33:47.936Z,101061.75
2023-04-15T15:38:51.778Z,101068.84
2023-04-15T15:43:55.114Z,101072.16
2023-04-15T15:48:57.952Z,101067.63
2023-04-15T15:54:01.800Z,101077.59
2023-04-15T15:59:04.519Z,101077.28
2023-04-15T16:04:07.499Z,101085.84
2023-04-15T16:09:11.785Z,101092.94
2023-04-15T16:14:14.908Z,101089.22
2023-04-15T16:19:17.398Z,101099.38
2023-04-15T16:24:21.358Z,101109.44
2023-04-15T16:29:23.875Z,101109.50
2023-04-15T16:34:26.363Z,101117.59
2023-04-15T16:39:30.445Z,101121.06
2023-04-15T16:44:33.417Z,101123.19
2023-04-15T16:49:35.951Z,101126.59
2023-04-15T16:54:41.603Z,101131.84
2023-04-15T16:59:44.132Z,101144.34
2023-04-15T17:04:46.601Z,101143.31
2023-04-15T17:09:50.487Z,101145.34
2023-04-15T17:14:52.959Z,101149.72
2023-04-15T17:19:55.490Z,101159.00
2023-04-15T17:24:59.372Z,101156.97
2023-04-15T17:30:01.976Z,101160.50
2023-04-15T17:35:06.303Z,101171.50
2023-04-15T17:40:11.702Z,101186.22
2023-04-15T17:45:14.960Z,101198.09
2023-04-15T17:50:17.456Z,101209.56
2023-04-15T17:55:22.076Z,101206.56
2023-04-15T18:00:24.901Z,101215.38
2023-04-15T18:05:27.483Z,101219.47
2023-04-15T18:10:31.301Z,101227.47
2023-04-15T18:15:34.231Z,101232.13
2023-04-15T18:20:36.900Z,101235.19
2023-04-15T18:25:43.351Z,101253.47
2023-04-15T18:30:45.866Z,101258.38
2023-04-15T18:35:50.054Z,101273.00
2023-04-15T18:40:54.121Z,101274.59
2023-04-15T18:45:56.722Z,101279.41
2023-04-15T18:50:59.436Z,101284.25
2023-04-15T18:56:03.442Z,101298.69
2023-04-15T19:01:06.298Z,101304.06
2023-04-15T19:06:08.931Z,101309.13
2023-04-15T19:11:12.858Z,101300.78
2023-04-15T19:16:15.561Z,101312.41
2023-04-15T19:21:18.383Z,101315.88
2023-04-15T19:26:22.286Z,101319.94
2023-04-15T19:31:24.953Z,101330.97
2023-04-15T19:36:28.489Z,101325.28
2023-04-15T19:41:32.655Z,101334.78
2023-04-15T19:46:35.357Z,101336.63
2023-04-15T19:51:38.107Z,101342.56
2023-04-15T19:56:42.018Z,101346.41
2023-04-15T20:01:44.994Z,101356.31
2023-04-15T20:06:47.648Z,101353.06
2023-04-15T20:12:44.976Z,101350.81
2023-04-15T20:17:15.961Z,101350.88
2023-04-15T20:22:18.584Z,101362.44
2023-04-15T20:27:22.610Z,101366.50
2023-04-15T20:32:25.273Z,101364.94
2023-04-15T20:37:29.512Z,101365.94
2023-04-15T20:42:35.429Z,101355.16
2023-04-15T20:47:38.064Z,101370.09
2023-04-15T20:52:40.939Z,101367.38
2023-04-15T20:57:44.925Z,101370.09
2023-04-15T21:02:47.596Z,101382.31
2023-04-15T21:07:50.300Z,101384.84
2023-04-15T21:12:54.171Z,101378.66
2023-04-15T21:17:56.865Z,101387.00
2023-04-15T21:22:59.610Z,101392.84
2023-04-15T21:28:04.139Z,101392.41
2023-04-15T21:33:06.755Z,101395.41
2023-04-15T21:38:09.384Z,101407.63
2023-04-15T21:43:13.346Z,101419.69
2023-04-15T21:48:15.994Z,101426.88
2023-04-15T21:53:18.763Z,101427.56
2023-04-15T21:58:22.773Z,101436.25
2023-04-15T22:03:25.798Z,101449.94
2023-04-15T22:08:28.592Z,101444.47
2023-04-15T22:13:32.572Z,101445.97
2023-04-15T22:18:35.140Z,101453.03
2023-04-15T22:23:37.722Z,101449.72
2023-04-15T22:28:41.674Z,101463.78
2023-04-15T22:33:44.217Z,101470.59
2023-04-15T22:38:46.910Z,101477.09
2023-04-15T22:43:50.820Z,101471.97
2023-04-15T22:48:54.074Z,101480.03
2023-04-15T22:53:57.093Z,101482.44
2023-04-15T22:59:01.037Z,101490.09
2023-04-15T23:04:05.000Z,101492.50
2023-04-15T23:09:09.800Z,101502.66
2023-04-15T23:14:13.753Z,101500.59
2023-04-15T23:19:16.483Z,101496.25
2023-04-15T23:24:19.020Z,101495.81
2023-04-15T23:29:22.816Z,101490.69
2023-04-15T23:34:25.467Z,101506.66
2023-04-15T23:39:27.996Z,101505.50
2023-04-15T23:44:31.831Z,101493.31
2023-04-15T23:49:34.376Z,101492.97
2023-04-15T23:54:36.873Z,101502.31
2023-04-15T23:59:40.719Z,101504.94
